Share

Kenai, AK

Kenai (KAKKENAI2) Elev 75 ft | 60.58 °N, 151.31 °W | Change Station

Current weather conditions updated 4 seconds ago

Clear
Clear
32.8 °F
Feels Like 33 °F
N
1.2
Wind Variable Wind from East
Gusts 0.0 mph
Sunrise 6:30 AM
Sunset 9:38 PM
Moon Waning Gibbous

Today is forecast to be nearly the same temperature as yesterday.

Pressure 29.50 in
Visibility 10.0 miles
Clouds Clear
Windchill 33 °F
Dew Point 25 °F
Humidity 74%
Rainfall 0.00 in
Snow Depth Not available.
UV 0.0 out of 16
Pollen Not available.
Air Quality Not available.
Flu Activity Sporadic
METAR PAEN 201053Z AUTO 03005KT 10SM CLR 01/M04 A2949 RMK AO2 SLP988 T00061044 TSNO

More Conditions Fewer Conditions

Pressure 29.50 in
Visibility 10.0 miles
Clouds Clear
Windchill 33 °F
Dew Point 25 °F
Humidity 74%
Rainfall 0.00 in
Snow Depth Not available.
UV 0.0 out of 16
Pollen Not available.
Air Quality Not available.
Flu Activity Sporadic
METAR PAEN 201053Z AUTO 03005KT 10SM CLR 01/M04 A2949 RMK AO2 SLP988 T00061044 TSNO

More Conditions Fewer Conditions

10-Day Weather Forecast

Almanac

Astronomy

Apr. 20, 2014 Rise Set
Actual Time 6:30 AM AKDT 9:38 PM AKDT
Civil Twilight 5:41 AM AKDT 10:27 PM AKDT
Nautical Twilight 4:33 AM AKDT 11:37 PM AKDT
Astronomical Twilight 2:36 AM AKDT 1:31 AM AKDT
Moon 3:00 AM AKDT 10:29 AM AKDT
Length of Visible Light 16h 46m
Length of Day
15h 07m
Tomorrow will be 5m 31s longer.
Waning Gibbous, 71% of the Moon is Illuminated
Today
Waning Gibbous
Apr 22
Last Quarter
Apr 29
New
May 6
First Quarter
May 14
Full

Today's Extremes

State Highs State Lows

Community

  • Easter Greetings
    Easter Greetings
  • Sunny day at the coast-Cape Arago Lighthouse
    Sunny day at the coast-Cape Arago Lighthouse
  • Cherry Blossoms
    Cherry Blossoms
  • White-Crowned Sparrow
    White-Crowned Sparrow
  • New Day
    New Day

WunderPhotos

Upload Photos

1,703,141 photos uploaded!

Nearby

Snow Depth

Station Depth Elevation
Cooper Lake 21 in 1200 ft
MF Bradley River 21 in 2300 ft
Summit Creek 19 in 1400 ft
Mcneil Canyon 8 in 1320 ft
Grouse Creek Divide 25 in 700 ft

Coastal Water Temperatures

Place Temperature
No Stations Reporting

Earthquake Activity

City Distance Mag. Time & Date
No recent earthquake activity has been reported nearby.
Minimum magnitude displayed is 2.5.

Nearby Weather Stations

Station Location Temp. Windchill Dew Point Humidity Wind Precip. Elev Updated Type
Kenai, Kenai, AK 32.8 °F 33 °F 25 °F 74% East  at  1.2 mph 0.00 in / hr 75 ft 3:20 AM AKDT Rapid Fire
RAWS SOLDOTNA AKKKS AK, Soldotna, AK 34 °F 34 °F 22 °F 62% NNE  at  3 mph 0.00 in / hr 154 ft 2:27 AM AKDT MADIS
RAWS SWANSON RIVER AK, Sterling, AK 38 °F 38 °F 23 °F 54% North  at  3 mph 0.00 in / hr 215 ft 1:50 AM AKDT MADIS
MARITIME , Nikiski, AK 41 °F 35 °F - - ENE  at  10 mph 0.00 in / hr 0 ft 2:00 AM AKDT MADIS

Show More Stations Show Fewer Stations

What do you think?

We're not finished. Please let us know what you like, what you don't like, and what you are still missing.